Creswell, Oregon
Current Conditions -  °F | °C
As of 8:54 AM on Thursday 27 Nov 2014 (Local Time) from KEUG Reporting Station
Light Rain Light Rain  
Wind Chill: 53°   Ceiling: 5500
Heat Index: 53°   Visibility: 8mi
Dew Point: 50°   Wind: 7mph
Humidity: 89%   Direction: 150°SSE
Pressure: 30.03"   Gusts: NA
Location:  43.92°N, 123.02°W
Report Text: KEUG 271654Z 15006KT 8SM -RA OVC055 12/10 A3003 RMK AO2 RAB1559 SLP170 P0003 T01170100
Loading
Personal Weather Stations






























Interactive Weather Map New forecast layout! Learn more

10-Day Weather Forecast

Advertisements
Track Severe Weather on mobile